Time;durP1;ratioP1;P1;durP2;ratioP2;P2;SDS_P1;SDS_P2;PMS_P1;PMS_P2;Temp;Humidity;BMP_temperature;BMP_pressure;BME280_temperature;BME280_humidity;BME280_pressure;Samples;Min_cycle;Max_cycle;Signal;HPM_P1;HPM_P2
2021/04/12 00:01:21;;;;;;;96.02;33.55;;;;;;;2.29;73.50;100327.23;1805743;76;20985;-66
2021/04/12 00:04:03;;;;;;;95.22;36.20;;;;;;;2.26;72.87;100325.02;1867198;76;22235;-66
2021/04/12 00:06:45;;;;;;;96.15;36.48;;;;;;;2.20;71.44;100324.09;1850929;76;20992;-66
2021/04/12 00:09:34;;;;;;;103.70;39.95;;;;;;;2.20;71.04;100323.27;1890122;75;22944;-66
2021/04/12 00:12:09;;;;;;;94.25;36.58;;;;;;;2.13;71.17;100323.95;1861142;77;20999;-66
2021/04/12 00:14:48;;;;;;;97.82;38.42;;;;;;;2.08;70.96;100315.72;1823270;78;21368;-66
2021/04/12 00:17:31;;;;;;;101.12;39.35;;;;;;;2.05;71.02;100317.55;1823189;78;20997;-65
2021/04/12 00:20:12;;;;;;;96.57;37.55;;;;;;;2.01;71.34;100313.15;1790820;80;20938;-65
2021/04/12 00:23:02;;;;;;;103.20;39.70;;;;;;;1.98;72.09;100313.10;1823286;78;21596;-65
2021/04/12 00:25:43;;;;;;;106.60;41.75;;;;;;;1.94;72.92;100322.77;1823326;78;21609;-65
2021/04/12 00:28:30;;;;;;;118.17;43.63;;;;;;;1.90;73.17;100316.72;1826328;78;21030;-64
2021/04/12 00:31:11;;;;;;;131.30;50.52;;;;;;;1.84;72.67;100321.73;1799142;78;20947;-64
2021/04/12 00:33:46;;;;;;;123.22;47.08;;;;;;;1.77;72.91;100316.45;1825902;78;20935;-65
2021/04/12 00:36:25;;;;;;;133.78;48.68;;;;;;;1.72;73.11;100309.61;1825550;78;21593;-63
2021/04/12 00:39:07;;;;;;;130.10;51.53;;;;;;;1.68;73.82;100311.15;1779640;80;20978;-64
2021/04/12 00:42:09;;;;;;;130.00;51.42;;;;;;;1.67;74.08;100308.69;1772328;79;21959;-63
2021/04/12 00:45:16;;;;;;;131.57;51.77;;;;;;;1.64;74.29;100304.56;1803571;79;20913;-63
2021/04/12 00:48:29;;;;;;;157.82;54.53;;;;;;;1.62;74.16;100300.75;1803501;79;21098;-64
2021/04/12 00:51:29;;;;;;;133.03;52.15;;;;;;;1.59;73.97;100303.93;1803348;79;20921;-63
2021/04/12 00:54:21;;;;;;;139.82;54.42;;;;;;;1.58;73.98;100291.45;1803476;79;20936;-63
2021/04/12 00:57:09;;;;;;;152.30;55.55;;;;;;;1.57;74.42;100301.99;1803397;79;21381;-64
2021/04/12 01:00:09;;;;;;;141.57;50.83;;;;;;;1.56;74.58;100294.93;1803355;79;20952;-64
2021/04/12 01:03:14;;;;;;;122.07;49.95;;;;;;;1.56;75.11;100292.76;1803509;79;21071;-63
2021/04/12 01:06:10;;;;;;;140.85;50.38;;;;;;;1.55;75.86;100295.99;1806129;78;21162;-64
2021/04/12 01:09:36;;;;;;;131.57;54.58;;;;;;;1.54;76.58;100289.47;1771469;78;20930;-64
2021/04/12 01:12:30;;;;;;;139.60;53.92;;;;;;;1.51;76.87;100289.94;1809144;79;21205;-63
2021/04/12 01:15:35;;;;;;;143.70;54.42;;;;;;;1.47;76.62;100283.36;1766828;80;20950;-63
2021/04/12 01:18:18;;;;;;;148.02;55.92;;;;;;;1.44;76.57;100285.19;1793603;80;20954;-65
2021/04/12 01:21:01;;;;;;;;;;;;;;;1.41;76.33;100279.72;1795598;80;20946;-66
2021/04/12 01:24:10;;;;;;;144.15;56.15;;;;;;;1.38;76.33;100278.02;1793170;80;20134;-65
2021/04/12 01:27:09;;;;;;;149.18;54.98;;;;;;;1.36;76.37;100275.55;1793011;80;21973;-64
2021/04/12 01:30:13;;;;;;;137.57;53.02;;;;;;;1.34;76.46;100265.50;1793014;79;20982;-64
2021/04/12 01:33:18;;;;;;;131.43;53.98;;;;;;;1.32;77.08;100264.38;1793017;80;20961;-64
2021/04/12 01:36:33;;;;;;;129.07;53.83;;;;;;;1.31;77.80;100259.21;1792957;79;20950;-64
2021/04/12 01:39:29;;;;;;;143.52;54.48;;;;;;;1.29;78.45;100260.80;1792957;80;20938;-65
2021/04/12 01:42:13;;;;;;;134.50;53.28;;;;;;;1.27;78.69;100255.33;1793027;79;21390;-64
2021/04/12 01:44:53;;;;;;;143.17;56.23;;;;;;;1.24;78.46;100255.28;1768737;80;20922;-64
2021/04/12 01:47:54;;;;;;;129.03;52.65;;;;;;;1.19;77.94;100253.81;1780707;80;20967;-64
2021/04/12 01:50:35;;;;;;;138.65;51.33;;;;;;;1.16;77.46;100253.47;1792974;80;20935;-65
2021/04/12 01:53:48;;;;;;;136.83;54.43;;;;;;;1.14;77.36;100248.33;1766856;80;21548;-65
2021/04/12 01:56:40;;;;;;;128.00;49.33;;;;;;;1.13;77.34;100241.80;1793139;80;21536;-64
2021/04/12 02:00:04;;;;;;;120.00;45.73;;;;;;;1.10;77.43;100240.92;1792865;79;21643;-64
2021/04/12 02:02:54;;;;;;;125.25;46.18;;;;;;;1.06;77.71;100232.45;1791627;80;20945;-64
2021/04/12 02:05:42;;;;;;;107.32;44.63;;;;;;;1.01;78.04;100230.17;1792974;80;21037;-64
2021/04/12 02:08:27;;;;;;;108.67;42.73;;;;;;;0.96;78.08;100226.30;1792776;80;21081;-64
2021/04/12 02:11:34;;;;;;;119.15;45.95;;;;;;;0.93;78.23;100228.12;1792921;80;21371;-64
2021/04/12 02:14:19;;;;;;;102.58;42.83;;;;;;;0.90;78.04;100224.53;1792855;80;20936;-65
2021/04/12 02:17:15;;;;;;;115.47;41.65;;;;;;;0.85;77.91;100220.89;1792868;79;20935;-65
2021/04/12 02:20:00;;;;;;;110.22;43.33;;;;;;;0.81;78.01;100212.43;1792934;80;20984;-65
2021/04/12 02:23:00;;;;;;;106.03;41.60;;;;;;;0.75;77.76;100213.90;1793041;79;21514;-65
2021/04/12 02:25:47;;;;;;;116.10;44.67;;;;;;;0.71;77.49;100212.19;1791617;80;21381;-65
2021/04/12 02:28:46;;;;;;;124.45;49.63;;;;;;;0.66;77.45;100221.00;1792454;80;21007;-64
2021/04/12 02:31:58;;;;;;;121.07;48.00;;;;;;;0.64;77.50;100218.23;1792882;79;21121;-65
2021/04/12 02:35:17;;;;;;;128.72;48.23;;;;;;;0.62;77.87;100219.83;1792959;79;20935;-64
2021/04/12 02:38:14;;;;;;;140.95;49.85;;;;;;;0.61;78.07;100215.48;1792884;80;21181;-65
2021/04/12 02:41:07;;;;;;;130.45;47.55;;;;;;;0.60;78.37;100217.06;1793015;80;21522;-64
2021/04/12 02:43:56;;;;;;;124.30;48.35;;;;;;;0.58;78.50;100213.24;1792866;79;21130;-63
2021/04/12 02:47:18;;;;;;;126.78;49.15;;;;;;;0.56;78.52;100211.33;1792944;79;20947;-64
2021/04/12 02:50:17;;;;;;;130.03;50.35;;;;;;;0.55;78.58;100208.34;1792895;79;20904;-63
2021/04/12 02:53:02;;;;;;;139.95;54.13;;;;;;;0.53;78.86;100210.45;1792969;79;21002;-63
2021/04/12 02:56:06;;;;;;;140.35;55.90;;;;;;;0.51;79.07;100202.28;1792972;80;21144;-63
2021/04/12 02:59:08;;;;;;;133.43;52.45;;;;;;;0.47;79.46;100202.45;1792840;80;21000;-63
2021/04/12 03:02:18;;;;;;;158.60;59.70;;;;;;;0.45;80.02;100205.39;1797375;78;21026;-63
2021/04/12 03:04:58;;;;;;;151.82;58.13;;;;;;;0.43;80.31;100203.45;1788880;79;21574;-66
2021/04/12 03:08:09;;;;;;;145.77;56.18;;;;;;;0.39;80.50;100208.20;1812019;78;21610;-63
2021/04/12 03:11:02;;;;;;;161.85;61.13;;;;;;;0.35;80.57;100196.22;1812961;78;21199;-66
2021/04/12 03:13:54;;;;;;;166.10;59.60;;;;;;;0.30;80.92;100204.48;1805672;79;21157;-66
2021/04/12 03:16:43;;;;;;;166.28;61.90;;;;;;;0.30;81.39;100194.22;1812092;78;21575;-65
2021/04/12 03:19:43;;;;;;;163.60;62.80;;;;;;;0.31;81.68;100189.93;1810304;78;21034;-65
2021/04/12 03:22:26;;;;;;;159.72;60.90;;;;;;;0.31;81.67;100185.05;1798263;79;20940;-65
2021/04/12 03:25:28;;;;;;;157.50;59.38;;;;;;;0.30;81.67;100181.53;1798284;79;22332;-65
2021/04/12 03:28:37;;;;;;;155.55;60.63;;;;;;;0.30;81.86;100183.41;1798278;79;21023;-65
2021/04/12 03:31:19;;;;;;;169.57;62.80;;;;;;;0.29;81.82;100186.64;1801093;78;20978;-65
2021/04/12 03:34:23;;;;;;;157.12;60.65;;;;;;;0.28;81.79;100182.82;1806941;79;20941;-65
2021/04/12 03:37:24;;;;;;;165.55;64.55;;;;;;;0.28;81.75;100179.59;1798067;79;20946;-65
2021/04/12 03:40:03;;;;;;;166.12;63.98;;;;;;;0.29;81.79;100175.02;1798241;79;21401;-64
2021/04/12 03:42:52;;;;;;;174.45;65.55;;;;;;;0.29;81.59;100174.48;1798265;79;20945;-64
2021/04/12 03:45:43;;;;;;;167.82;64.80;;;;;;;0.32;81.70;100175.90;1798310;79;21511;-65
2021/04/12 03:48:54;;;;;;;144.22;60.78;;;;;;;0.35;82.06;100170.03;1797763;79;20942;-65
2021/04/12 03:51:39;;;;;;;158.15;64.37;;;;;;;0.38;82.14;100172.27;1798220;79;20930;-65
2021/04/12 03:54:33;;;;;;;172.13;65.62;;;;;;;0.37;81.93;100170.62;1798194;79;21259;-65
2021/04/12 03:57:32;;;;;;;163.75;64.40;;;;;;;0.41;81.90;100170.98;1798167;79;21084;-65
2021/04/12 04:00:47;;;;;;;170.43;66.60;;;;;;;0.44;81.45;100175.38;1798298;79;20894;-64
2021/04/12 04:03:49;;;;;;;161.85;59.35;;;;;;;0.46;81.14;100174.62;1809862;78;21576;-63
2021/04/12 04:06:45;;;;;;;154.27;61.15;;;;;;;0.48;81.30;100177.91;1780895;79;20966;-63
2021/04/12 04:09:49;;;;;;;140.68;59.30;;;;;;;0.53;81.75;100178.56;1792238;79;21149;-65
2021/04/12 04:12:58;;;;;;;158.00;60.85;;;;;;;0.58;82.14;100173.24;1783832;79;20968;-65
2021/04/12 04:15:43;;;;;;;148.93;60.58;;;;;;;0.64;82.25;100174.48;1753346;80;20995;-66
2021/04/12 04:18:45;;;;;;;150.70;59.25;;;;;;;0.69;82.11;100170.25;1783986;80;21045;-66
2021/04/12 04:21:20;;;;;;;156.10;62.40;;;;;;;0.75;82.18;100167.95;1783990;80;21035;-71
2021/04/12 04:24:32;;;;;;;159.00;63.40;;;;;;;0.81;82.19;100169.19;1783403;80;21451;-69
2021/04/12 04:27:13;;;;;;;171.50;64.62;;;;;;;0.85;81.94;100176.29;1783823;80;21091;-74
2021/04/12 04:30:20;;;;;;;178.78;71.42;;;;;;;0.94;81.45;100180.28;1783922;79;20924;-73
2021/04/12 04:33:18;;;;;;;152.40;58.45;;;;;;;1.01;80.92;100173.39;1783771;80;21071;-79
2021/04/12 04:36:21;;;;;;;146.98;60.98;;;;;;;1.07;80.14;100175.97;1793065;79;21125;-74
2021/04/12 04:39:12;;;;;;;156.80;63.52;;;;;;;1.13;79.62;100174.20;1784193;80;22720;-76
2021/04/12 04:41:58;;;;;;;151.70;59.20;;;;;;;1.19;79.92;100178.09;1784174;80;21088;-82
2021/04/12 04:44:55;;;;;;;248.45;92.08;;;;;;;1.25;79.57;100177.13;1783588;80;21001;-77
2021/04/12 04:47:42;;;;;;;222.37;84.25;;;;;;;1.34;79.41;100178.94;1783942;80;21559;-71
2021/04/12 04:50:31;;;;;;;270.40;99.65;;;;;;;1.44;79.33;100170.20;1761095;80;20926;-70
2021/04/12 04:53:20;;;;;;;383.43;127.22;;;;;;;1.54;79.53;100169.05;1783845;79;21368;-73
2021/04/12 04:56:13;;;;;;;466.27;166.70;;;;;;;1.62;79.68;100162.72;1784748;79;20946;-69
2021/04/12 04:59:20;;;;;;;338.65;119.57;;;;;;;1.74;79.71;100157.22;1797239;79;21481;-73
2021/04/12 05:02:14;;;;;;;334.10;117.80;;;;;;;1.87;79.26;100153.39;1763298;79;21473;-74
2021/04/12 05:05:06;;;;;;;301.58;108.72;;;;;;;1.99;78.99;100153.62;1795211;79;21065;-70
2021/04/12 05:08:11;;;;;;;205.72;78.42;;;;;;;2.16;79.09;100146.04;1795117;80;22487;-72
2021/04/12 05:11:16;;;;;;;198.25;75.52;;;;;;;2.35;77.86;100152.00;1817263;78;20931;-73
2021/04/12 05:14:12;;;;;;;217.75;82.55;;;;;;;2.58;77.25;100154.00;1831662;78;20989;-73
2021/04/12 05:17:18;;;;;;;175.38;73.22;;;;;;;2.83;77.35;100152.73;1833585;78;21030;-74
2021/04/12 05:20:10;;;;;;;138.32;57.40;;;;;;;3.03;76.79;100150.27;1814901;79;21108;-73
2021/04/12 05:22:49;;;;;;;128.95;51.98;;;;;;;3.24;75.32;100145.38;1831831;78;21229;-69
2021/04/12 05:25:48;;;;;;;135.45;55.90;;;;;;;3.45;74.03;100146.98;1813808;79;21486;-72
2021/04/12 05:28:47;;;;;;;110.12;47.70;;;;;;;3.65;73.40;100143.10;1831787;78;21229;-71
2021/04/12 05:31:47;;;;;;;91.35;41.58;;;;;;;3.88;72.29;100139.27;1815607;79;20935;-72
2021/04/12 05:34:55;;;;;;;87.97;40.17;;;;;;;4.13;70.51;100136.75;1736651;82;21596;-70
2021/04/12 05:38:01;;;;;;;76.17;37.85;;;;;;;4.42;68.46;100133.17;1814508;79;21163;-78
2021/04/12 05:40:55;;;;;;;86.60;38.95;;;;;;;4.74;66.83;100133.63;1832023;77;20914;-72
2021/04/12 05:44:07;;;;;;;87.97;40.08;;;;;;;5.04;65.67;100133.80;1834232;78;21654;-71
2021/04/12 05:47:17;;;;;;;80.55;37.70;;;;;;;5.33;64.37;100133.35;1815452;79;20946;-71
2021/04/12 05:50:13;;;;;;;81.65;38.48;;;;;;;5.59;63.01;100122.81;1831711;78;21092;-73
2021/04/12 05:53:04;;;;;;;81.78;36.28;;;;;;;6.13;61.13;100125.08;1815610;79;21431;-71
2021/04/12 05:55:47;;;;;;;83.65;36.63;;;;;;;6.13;61.13;100125.08;1831664;78;21152;-65
2021/04/12 05:58:37;;;;;;;79.77;37.78;;;;;;;6.36;59.99;100125.87;1801774;79;21528;-71
2021/04/12 06:01:11;;;;;;;69.60;35.52;;;;;;;6.60;58.77;100126.12;1811011;79;21100;-72
2021/04/12 06:03:56;;;;;;;73.02;33.65;;;;;;;7.05;57.63;100125.16;1831829;78;21468;-70
2021/04/12 06:07:18;;;;;;;83.95;35.08;;;;;;;7.27;57.25;100126.99;1815542;79;21327;-68
2021/04/12 06:10:38;;;;;;;80.25;36.03;;;;;;;7.27;57.25;100126.99;1828076;78;20978;-68
2021/04/12 06:13:43;;;;;;;69.58;34.10;;;;;;;7.54;56.50;100125.75;1805225;78;21548;-67
2021/04/12 06:17:10;;;;;;;78.17;36.93;;;;;;;7.86;55.43;100130.75;1792301;80;21057;-67
2021/04/12 06:20:02;;;;;;;68.87;32.95;;;;;;;8.15;54.51;100125.33;1786435;79;21052;-67
2021/04/12 06:23:08;;;;;;;85.63;34.40;;;;;;;8.76;52.44;100108.36;1806415;79;21381;-67
2021/04/12 06:25:52;;;;;;;72.12;34.98;;;;;;;8.76;52.44;100108.36;1822265;78;21991;-66
2021/04/12 06:29:00;;;;;;;64.97;33.67;;;;;;;9.03;50.96;100107.23;1759662;80;21472;-67
2021/04/12 06:32:00;;;;;;;62.60;30.70;;;;;;;9.26;51.09;100109.13;1750541;80;21425;-69
2021/04/12 06:35:03;;;;;;;64.53;31.10;;;;;;;9.50;50.37;100104.16;1802609;79;20935;-68
2021/04/12 06:38:01;;;;;;;66.02;32.15;;;;;;;9.76;50.05;100103.25;1800084;78;21377;-66
2021/04/12 06:41:20;;;;;;;74.27;32.73;;;;;;;10.00;49.16;100094.91;1789387;80;21197;-66
2021/04/12 06:44:23;;;;;;;71.25;32.23;;;;;;;10.21;48.21;100092.94;1706192;83;21087;-68
2021/04/12 06:47:28;;;;;;;69.80;32.60;;;;;;;10.44;48.06;100085.66;1705220;82;27497;-69
2021/04/12 06:50:17;;;;;;;62.58;32.13;;;;;;;10.67;47.28;100086.62;1792069;78;21191;-67
2021/04/12 06:53:14;;;;;;;67.37;30.57;;;;;;;10.89;45.98;100080.44;1757002;80;21285;-67
2021/04/12 06:55:58;;;;;;;59.65;31.35;;;;;;;11.07;45.00;100078.69;1790970;79;21604;-67
2021/04/12 06:59:02;;;;;;;60.15;29.67;;;;;;;11.23;45.41;100077.25;1797631;79;21131;-68
2021/04/12 07:02:00;;;;;;;56.90;26.73;;;;;;;11.40;44.90;100076.62;1795358;79;21180;-67
2021/04/12 07:05:11;;;;;;;56.70;31.23;;;;;;;11.61;43.73;100070.89;1794244;80;21547;-66
2021/04/12 07:08:20;;;;;;;85.32;41.55;;;;;;;11.82;43.86;100068.52;1795096;79;21371;-67
2021/04/12 07:11:08;;;;;;;78.22;36.17;;;;;;;12.03;43.69;100071.03;1797037;78;21096;-66
2021/04/12 07:14:00;;;;;;;133.20;62.70;;;;;;;12.24;42.80;100065.81;1761899;78;20998;-67
2021/04/12 07:16:47;;;;;;;63.10;33.30;;;;;;;12.43;43.09;100062.85;1766157;80;21486;-69
2021/04/12 07:20:12;;;;;;;63.83;29.90;;;;;;;12.64;42.84;100063.13;1784094;80;21065;-66
2021/04/12 07:23:21;;;;;;;50.85;26.05;;;;;;;12.82;41.09;100064.23;1791904;78;21432;-65
2021/04/12 07:26:47;;;;;;;64.97;25.55;;;;;;;13.00;40.64;100054.66;1787493;80;21057;-72
2021/04/12 07:29:57;;;;;;;63.40;28.02;;;;;;;13.15;40.45;100054.22;1808120;79;20978;-68
2021/04/12 07:33:18;;;;;;;61.83;26.07;;;;;;;13.36;39.82;100054.44;1790204;79;21200;-66
2021/04/12 07:36:31;;;;;;;54.88;24.70;;;;;;;13.55;38.30;100052.19;1782794;79;21545;-65
2021/04/12 07:39:31;;;;;;;38.53;19.93;;;;;;;13.77;38.11;100046.53;1797790;78;21347;-66
2021/04/12 07:42:31;;;;;;;43.25;20.15;;;;;;;14.21;37.37;100042.56;1688934;83;21323;-66
2021/04/12 07:45:16;;;;;;;42.73;18.73;;;;;;;14.73;35.61;100038.84;1720010;82;21171;-67
2021/04/12 07:48:19;;;;;;;31.75;17.62;;;;;;;15.13;34.29;100039.28;1824904;76;21681;-68
2021/04/12 07:51:13;;;;;;;33.95;16.48;;;;;;;15.40;34.23;100040.75;1787166;79;21053;-64
2021/04/12 07:54:17;;;;;;;30.40;17.95;;;;;;;15.76;33.77;100033.23;1799433;78;22128;-67
2021/04/12 07:57:27;;;;;;;36.55;18.60;;;;;;;16.09;32.43;100024.39;1789250;79;21571;-64
2021/04/12 08:00:40;;;;;;;24.30;14.00;;;;;;;16.34;32.19;100016.94;1785503;80;21011;-65
2021/04/12 08:03:31;;;;;;;38.38;19.90;;;;;;;16.65;31.45;100010.91;1792452;79;21049;-64
2021/04/12 08:06:45;;;;;;;27.98;16.50;;;;;;;16.95;31.17;100012.86;1795364;79;21081;-65
2021/04/12 08:09:56;;;;;;;28.92;15.58;;;;;;;17.09;30.83;100009.16;1788034;80;21345;-66
2021/04/12 08:12:58;;;;;;;34.73;14.75;;;;;;;17.23;30.70;100009.38;1788523;80;21221;-67
2021/04/12 08:16:22;;;;;;;40.03;17.05;;;;;;;17.30;28.70;100004.86;1791721;79;21566;-65
2021/04/12 08:19:32;;;;;;;26.07;14.40;;;;;;;17.40;30.47;100000.77;1792789;79;21137;-66
2021/04/12 08:22:42;;;;;;;26.02;15.43;;;;;;;17.69;29.95;99996.33;1789799;79;21121;-66
2021/04/12 08:25:54;;;;;;;22.15;15.15;;;;;;;17.87;29.13;99996.03;1757470;79;21387;-66
2021/04/12 08:29:08;;;;;;;26.73;15.25;;;;;;;17.86;28.31;99993.02;1794185;79;21087;-66
2021/04/12 08:32:34;;;;;;;31.75;17.10;;;;;;;17.75;28.96;99989.94;1792542;79;21122;-66
2021/04/12 08:35:33;;;;;;;31.65;17.30;;;;;;;17.74;29.28;99984.97;1806982;79;21006;-71
2021/04/12 08:38:38;;;;;;;26.17;16.27;;;;;;;17.73;28.83;99979.19;1815860;79;21116;-68
2021/04/12 08:41:37;;;;;;;31.70;18.02;;;;;;;17.87;28.43;99968.26;1768995;78;21169;-71
2021/04/12 08:44:28;;;;;;;26.97;17.60;;;;;;;18.07;28.18;99967.20;1769173;79;21168;-71
2021/04/12 08:47:35;;;;;;;32.80;17.10;;;;;;;18.25;27.81;99970.47;1792695;79;21571;-69
2021/04/12 08:50:36;;;;;;;35.25;17.32;;;;;;;18.25;26.28;99962.13;1806054;79;21135;-69
2021/04/12 08:53:35;;;;;;;35.20;18.67;;;;;;;18.04;26.82;99951.25;1772700;78;21203;-70
2021/04/12 08:56:44;;;;;;;31.85;16.82;;;;;;;17.96;26.75;99955.80;1772258;78;22285;-67
2021/04/12 08:59:54;;;;;;;31.25;17.92;;;;;;;18.08;26.75;99943.23;1806202;79;21068;-70
2021/04/12 09:03:13;;;;;;;33.95;18.12;;;;;;;18.35;26.40;99951.29;1800643;78;21145;-67
2021/04/12 09:06:10;;;;;;;34.00;17.32;;;;;;;18.52;26.52;99935.39;1789706;80;21197;-67
2021/04/12 09:09:02;;;;;;;36.05;19.45;;;;;;;18.68;26.19;99939.00;1789683;80;21070;-67
2021/04/12 09:12:14;;;;;;;27.00;17.20;;;;;;;18.79;26.09;99926.16;1790440;78;21736;-69
2021/04/12 09:15:26;;;;;;;31.73;15.93;;;;;;;18.82;25.53;99926.02;1785488;79;21568;-68
2021/04/12 09:18:15;;;;;;;;;;;;;;;18.76;24.95;99920.73;1804045;78;21503;-67
2021/04/12 09:21:10;;;;;;;33.00;18.02;;;;;;;18.70;25.38;99912.45;1785862;79;20258;-67
2021/04/12 09:24:20;;;;;;;32.83;16.57;;;;;;;18.64;26.01;99916.67;1781646;80;21111;-68
2021/04/12 09:27:18;;;;;;;28.55;16.73;;;;;;;18.60;25.80;99910.22;1776478;80;21326;-66
2021/04/12 09:30:16;;;;;;;39.73;17.50;;;;;;;18.43;25.90;99900.27;1803220;79;20974;-66
2021/04/12 09:33:14;;;;;;;38.25;16.50;;;;;;;18.28;26.04;99892.75;1784396;80;21003;-69
2021/04/12 09:36:09;;;;;;;30.37;15.30;;;;;;;18.27;26.55;99886.96;1790054;80;21459;-69
2021/04/12 09:39:14;;;;;;;22.13;11.57;;;;;;;18.44;26.68;99892.74;1716554;80;21051;-69
2021/04/12 09:42:19;;;;;;;22.60;10.25;;;;;;;18.72;24.59;99894.01;1788754;80;21828;-69
2021/04/12 09:45:18;;;;;;;19.05;11.08;;;;;;;18.78;21.76;99878.66;1791898;78;20998;-66
2021/04/12 09:48:10;;;;;;;19.23;10.80;;;;;;;18.80;22.57;99874.34;1789432;80;20998;-67
2021/04/12 09:51:20;;;;;;;20.55;11.18;;;;;;;18.86;22.29;99870.70;1789729;80;21053;-65
2021/04/12 09:54:30;;;;;;;28.52;12.03;;;;;;;18.79;23.79;99873.32;1789918;80;21057;-66
2021/04/12 09:57:48;;;;;;;26.05;11.75;;;;;;;18.47;23.88;99871.17;1788984;80;22340;-67
2021/04/12 10:00:37;;;;;;;25.05;13.38;;;;;;;18.04;23.38;99869.30;1727482;82;21132;-67
2021/04/12 10:03:49;;;;;;;22.80;12.03;;;;;;;17.61;24.37;99873.71;1727609;83;21616;-66
2021/04/12 10:06:33;;;;;;;23.27;12.33;;;;;;;17.28;24.24;99875.38;1779101;80;20922;-63
2021/04/12 10:09:34;;;;;;;23.12;11.90;;;;;;;16.78;23.77;99873.08;1789909;80;21025;-63
2021/04/12 10:12:34;;;;;;;20.00;10.15;;;;;;;16.43;24.49;99869.41;1794308;78;22798;-64
2021/04/12 10:15:23;;;;;;;32.48;16.97;;;;;;;16.18;24.89;99867.78;1800029;78;21507;-64
2021/04/12 10:18:14;;;;;;;28.35;13.62;;;;;;;16.01;25.22;99870.80;1796495;78;20927;-65
2021/04/12 10:20:55;;;;;;;41.63;21.30;;;;;;;15.85;25.10;99868.69;1793520;78;21207;-65
2021/04/12 10:23:28;;;;;;;26.35;15.35;;;;;;;15.69;25.62;99873.25;1792700;79;21053;-66
2021/04/12 10:26:06;;;;;;;43.42;21.75;;;;;;;15.61;25.77;99870.58;1808760;78;21351;-66
2021/04/12 10:28:47;;;;;;;32.55;17.07;;;;;;;15.53;26.27;99870.90;1788365;79;21115;-65
2021/04/12 10:31:25;;;;;;;22.62;10.70;;;;;;;15.46;26.43;99859.00;1785672;80;20945;-64
2021/04/12 10:33:56;;;;;;;35.52;16.90;;;;;;;15.37;26.94;99863.00;1794493;79;21073;-63
2021/04/12 10:36:35;;;;;;;29.02;17.52;;;;;;;15.29;27.48;99858.35;1781496;80;21140;-64
2021/04/12 10:39:08;;;;;;;31.02;16.97;;;;;;;15.20;27.80;99853.70;1739114;80;21271;-64
2021/04/12 10:41:49;;;;;;;35.90;18.67;;;;;;;15.13;29.06;99858.16;1763632;81;21576;-64
2021/04/12 10:44:36;;;;;;;20.72;12.47;;;;;;;15.09;29.09;99861.37;1763669;80;21595;-64
2021/04/12 10:47:30;;;;;;;41.95;17.37;;;;;;;15.07;28.66;99867.81;1820028;78;21022;-63
2021/04/12 10:50:36;;;;;;;43.90;19.92;;;;;;;15.02;28.80;99856.98;1793040;80;21540;-64
2021/04/12 10:53:29;;;;;;;27.13;12.80;;;;;;;14.98;30.02;99863.77;1756341;80;21373;-64
2021/04/12 10:56:05;;;;;;;21.30;10.63;;;;;;;14.97;29.75;99859.95;1785906;79;21141;-68
2021/04/12 10:58:59;;;;;;;24.23;12.00;;;;;;;14.93;29.68;99854.28;1771704;79;21128;-68
2021/04/12 11:01:42;;;;;;;24.87;12.73;;;;;;;14.90;30.37;99854.15;1797953;78;21128;-66
2021/04/12 11:04:27;;;;;;;36.68;17.90;;;;;;;14.87;30.79;99848.72;1755152;80;21171;-68
2021/04/12 11:07:08;;;;;;;41.13;18.40;;;;;;;14.84;31.36;99847.44;1759882;80;21151;-68
2021/04/12 11:09:53;;;;;;;35.08;16.00;;;;;;;14.80;31.91;99852.59;1798368;78;20998;-71
2021/04/12 11:12:42;;;;;;;26.93;13.03;;;;;;;14.80;31.97;99847.06;1802696;78;21053;-68
2021/04/12 11:15:40;;;;;;;22.85;11.53;;;;;;;14.77;32.67;99841.64;1795820;79;21604;-69
2021/04/12 11:18:42;;;;;;;20.70;11.30;;;;;;;14.74;32.75;99849.80;1792461;79;21137;-68
2021/04/12 11:21:28;;;;;;;;;;;;;;;14.72;32.50;99847.94;1786672;80;21666;-66
2021/04/12 11:24:28;;;;;;;24.23;10.63;;;;;;;14.68;32.83;99840.08;1783996;80;20151;-66
2021/04/12 11:27:43;;;;;;;26.50;11.25;;;;;;;14.66;32.79;99840.98;1757935;79;21245;-68
2021/04/12 11:30:36;;;;;;;35.30;11.85;;;;;;;14.67;33.45;99842.61;1795615;79;20922;-72
2021/04/12 11:33:33;;;;;;;26.55;11.60;;;;;;;14.63;32.89;99852.71;1792636;79;21113;-69
2021/04/12 11:36:19;;;;;;;22.77;10.55;;;;;;;14.58;33.62;99846.81;1809705;79;22299;-69
2021/04/12 11:39:18;;;;;;;18.92;9.68;;;;;;;14.57;33.95;99845.19;1806161;79;21168;-72
2021/04/12 11:42:06;;;;;;;23.70;10.60;;;;;;;14.54;33.54;99847.23;1793434;78;21687;-77
2021/04/12 11:44:48;;;;;;;24.18;11.97;;;;;;;14.49;33.58;99839.95;1782020;79;21592;-72
2021/04/12 11:47:39;;;;;;;33.33;13.90;;;;;;;14.47;33.34;99842.24;1763113;80;21204;-70
2021/04/12 11:50:25;;;;;;;27.05;12.53;;;;;;;14.40;33.86;99836.44;1781817;79;21195;-72
2021/04/12 11:53:29;;;;;;;31.07;15.18;;;;;;;14.38;34.14;99837.34;1800209;78;21139;-73
2021/04/12 11:56:20;;;;;;;33.67;12.60;;;;;;;14.40;34.47;99832.86;1785854;78;20991;-70
2021/04/12 11:59:04;;;;;;;29.92;12.88;;;;;;;14.41;34.37;99837.24;1783819;80;21169;-70
2021/04/12 12:01:46;;;;;;;32.85;12.75;;;;;;;14.34;34.50;99833.63;1794571;78;21568;-67
2021/04/12 12:04:22;;;;;;;32.70;12.88;;;;;;;14.27;35.74;99834.72;1792856;79;22375;-68
2021/04/12 12:07:34;;;;;;;28.60;12.70;;;;;;;14.27;35.71;99835.29;1794902;79;21496;-69
2021/04/12 12:10:13;;;;;;;27.85;13.08;;;;;;;14.24;35.82;99830.44;1797983;79;25745;-68
2021/04/12 12:13:42;;;;;;;28.62;13.62;;;;;;;14.18;35.01;99827.86;1792430;79;21163;-71
2021/04/12 12:16:32;;;;;;;27.87;12.65;;;;;;;14.16;35.38;99825.19;1795394;79;21145;-69
2021/04/12 12:19:48;;;;;;;32.67;14.38;;;;;;;14.13;34.89;99818.95;1792262;79;21035;-69
2021/04/12 12:22:34;;;;;;;42.93;18.32;;;;;;;14.07;34.65;99819.71;1744550;79;20982;-71
2021/04/12 12:25:08;;;;;;;56.05;26.62;;;;;;;14.01;35.30;99820.23;1795520;79;21017;-73
2021/04/12 12:27:43;;;;;;;62.53;26.65;;;;;;;13.94;35.35;99821.31;1795219;80;20970;-68
2021/04/12 12:30:36;;;;;;;34.05;17.50;;;;;;;13.85;35.41;99822.19;1793773;78;21062;-67
2021/04/12 12:33:25;;;;;;;76.00;32.93;;;;;;;13.78;35.89;99822.45;1792273;79;21410;-72
2021/04/12 12:36:08;;;;;;;62.20;28.23;;;;;;;13.71;37.10;99814.69;1800057;79;21133;-68
2021/04/12 12:38:47;;;;;;;;;;;;;;;13.65;35.81;99813.81;1818816;79;21112;-68
2021/04/12 12:41:20;;;;;;;46.65;22.73;;;;;;;13.55;37.00;99814.98;1816248;78;20738;-72
2021/04/12 12:43:48;;;;;;;42.20;18.62;;;;;;;13.49;36.75;99816.30;1814998;79;21006;-71
2021/04/12 12:46:23;;;;;;;47.10;18.92;;;;;;;13.46;37.04;99815.57;1814723;78;21612;-68
2021/04/12 12:48:55;;;;;;;30.82;15.15;;;;;;;13.48;37.17;99812.73;1805749;79;21583;-71
2021/04/12 12:51:33;;;;;;;30.02;13.58;;;;;;;13.50;36.59;99811.02;1821640;78;21119;-71
2021/04/12 12:54:07;;;;;;;30.80;14.60;;;;;;;13.51;36.57;99809.88;1822132;78;21474;-69
2021/04/12 12:56:38;;;;;;;34.95;14.78;;;;;;;13.51;36.74;99812.07;1792859;78;21663;-71
2021/04/12 12:59:25;;;;;;;30.57;13.83;;;;;;;13.49;36.32;99807.45;1774567;80;21369;-69
2021/04/12 13:01:54;;;;;;;37.60;16.48;;;;;;;13.48;36.59;99814.67;1789797;80;21099;-69
2021/04/12 13:04:28;;;;;;;38.83;16.45;;;;;;;13.47;36.24;99818.57;1789847;80;20935;-71
2021/04/12 13:06:59;;;;;;;32.00;14.98;;;;;;;13.44;36.27;99810.95;1774630;80;21627;-72
2021/04/12 13:09:34;;;;;;;39.60;16.95;;;;;;;13.42;36.39;99811.28;1760277;80;21124;-69
2021/04/12 13:12:14;;;;;;;31.40;15.43;;;;;;;13.40;36.55;99807.23;1789703;79;21333;-71
2021/04/12 13:14:51;;;;;;;28.98;15.13;;;;;;;13.37;36.79;99805.13;1777665;80;21065;-71
2021/04/12 13:17:34;;;;;;;33.15;16.12;;;;;;;13.39;36.34;99805.61;1792122;78;20922;-75
2021/04/12 13:20:10;;;;;;;34.85;14.90;;;;;;;13.39;37.30;99808.37;1792059;79;21080;-73
2021/04/12 13:22:40;;;;;;;31.02;13.88;;;;;;;13.38;36.80;99797.91;1793313;78;21184;-74